الصفحة الرئيسية
METAR-TAF:

METAR-TAF

مطار :

Paraguaná, فنزويلا

دائرة عرض: 11-47N, خط طول: 070-09W, ارتفاع: 23 متر

METAR: مفقودة

زمن: 02:05 (06:05 UTC)

توقعات

تاريخ ووقت الإصدار 8ساعات و 5 دقيقة قبل الساعة 22:00UTC
التوقعات صالحة من04 الساعة 00 UTC إلى 05 الساعة 00 UTC
ريح 12 عقدة من الشرق
الرؤية 10 كم أو أكثر
غيوم قليلة على ارتفاع 1300 قدم
مؤقت
من 04 الساعة 03 UTC إلى 04 الساعة 07 UTC
ريح 5 عقدة من الشرق
الرؤية 10 كم أو أكثر
غيوم قليلة على ارتفاع 1600 قدم
غيوم متفرقة على ارتفاع 2000 قدم

TAF: SVJC 032200Z 0400/0500 08012KT 9999 FEW013 TX37/0217Z TN24/0207Z TEMPO 0403/0407 09005KT 9999 FEW016 SCT020

أرصاد الطقس والتوقعات من أكثر من 4000 مطار (تقارير الطقس للمطار METAR والتنبؤ بالطقس بالمطارTAF).

المحطات المتاحة هي النقط الصفراء والحمراء على الخريطة.

حرك المؤشر فوق النقطة لمعرفة اسم المحطة.

ثم انقر لمعرفة أرصاد وتوقعات الطقس.

لتغيير الخارطة: اضغط على الأزرار الخضراء مع رمز الصليب الأسود للتكبير. على الزر الأخضر مع شرطة للتصغير، أو على الأسهم الخضراء للخرائط المجاورة.


METAR-TAF: